Time;durP1;ratioP1;P1;durP2;ratioP2;P2;SDS_P1;SDS_P2;PMS_P1;PMS_P2;Temp;Humidity;BMP_temperature;BMP_pressure;BME280_temperature;BME280_humidity;BME280_pressure;Samples;Min_cycle;Max_cycle;Signal;HPM_P1;HPM_P2
2023/05/01 00:01:15;;;;;;;2.83;2.13;;;;;;;8.60;37.57;95621.16;4948749;28;20043;-63
2023/05/01 00:03:40;;;;;;;2.53;2.15;;;;;;;8.57;37.77;95621.50;4948531;28;20106;-62
2023/05/01 00:06:06;;;;;;;4.57;2.20;;;;;;;8.61;37.34;95614.03;4945735;28;20521;-62
2023/05/01 00:08:32;;;;;;;2.72;2.03;;;;;;;8.59;37.84;95618.66;4949031;28;20043;-62
2023/05/01 00:11:02;;;;;;;2.20;2.00;;;;;;;8.50;37.89;95613.34;4951600;28;20064;-62
2023/05/01 00:13:27;;;;;;;3.60;2.20;;;;;;;8.49;38.10;95603.72;4931674;28;20536;-62
2023/05/01 00:15:54;;;;;;;2.85;1.95;;;;;;;8.44;37.84;95608.72;4949939;28;20097;-62
2023/05/01 00:18:19;;;;;;;2.45;2.00;;;;;;;8.35;38.25;95604.38;4953208;28;20430;-62
2023/05/01 00:20:44;;;;;;;3.03;2.20;;;;;;;8.26;39.08;95604.38;4950399;28;20035;-62
2023/05/01 00:23:11;;;;;;;2.20;2.00;;;;;;;8.28;38.63;95596.25;4953443;28;20297;-62
2023/05/01 00:25:37;;;;;;;2.97;2.10;;;;;;;8.26;38.69;95595.59;4950060;28;20058;-62
2023/05/01 00:28:02;;;;;;;4.20;2.03;;;;;;;8.22;39.24;95595.09;4954227;28;20543;-62
2023/05/01 00:30:28;;;;;;;3.38;2.20;;;;;;;8.06;40.26;95595.88;4951174;28;20090;-62
2023/05/01 00:32:53;;;;;;;3.08;2.00;;;;;;;8.08;39.10;95596.56;4956174;28;20046;-62
2023/05/01 00:35:18;;;;;;;4.82;2.30;;;;;;;8.10;39.60;95599.03;4953573;28;20053;-62
2023/05/01 00:37:44;;;;;;;3.03;1.95;;;;;;;8.05;39.01;95587.09;4951371;28;20068;-62
2023/05/01 00:40:10;;;;;;;4.50;2.60;;;;;;;8.09;38.89;95584.13;4951323;28;20056;-62
2023/05/01 00:42:36;;;;;;;3.15;2.10;;;;;;;8.10;38.97;95583.13;4947724;28;20111;-62
2023/05/01 00:45:02;;;;;;;2.55;2.10;;;;;;;8.02;39.38;95582.13;4953844;28;20511;-62
2023/05/01 00:47:28;;;;;;;3.92;2.28;;;;;;;8.08;39.31;95577.16;4935743;28;20477;-62
2023/05/01 00:49:53;;;;;;;2.88;2.00;;;;;;;8.08;39.12;95579.81;4934742;28;20028;-62
2023/05/01 00:52:18;;;;;;;4.40;2.15;;;;;;;7.99;39.30;95577.13;4914404;28;20403;-62
2023/05/01 00:54:44;;;;;;;3.13;2.10;;;;;;;7.94;39.41;95574.16;4953145;28;20402;-62
2023/05/01 00:57:09;;;;;;;4.20;2.20;;;;;;;7.93;39.31;95567.19;4929608;28;20065;-62
2023/05/01 00:59:35;;;;;;;3.10;2.40;;;;;;;7.89;39.88;95568.53;4936080;28;20236;-62
2023/05/01 01:02:00;;;;;;;3.20;2.40;;;;;;;7.89;39.65;95565.88;4927086;28;20295;-62
2023/05/01 01:04:30;;;;;;;2.58;2.10;;;;;;;7.87;39.71;95562.53;4949701;28;20052;-62
2023/05/01 01:07:02;;;;;;;4.30;2.40;;;;;;;7.84;40.04;95562.84;4949880;28;20058;-62
2023/05/01 01:09:54;;;;;;;4.65;2.47;;;;;;;7.62;41.18;95554.50;4924828;28;20485;-62
2023/05/01 01:12:29;;;;;;;3.28;2.17;;;;;;;7.69;40.50;95552.88;4948947;28;20316;-62
2023/05/01 01:15:01;;;;;;;2.17;1.98;;;;;;;7.64;42.20;95556.00;4929285;28;20515;-62
2023/05/01 01:17:30;;;;;;;6.60;2.20;;;;;;;7.68;41.74;95548.53;4927520;28;20079;-62
2023/05/01 01:20:23;;;;;;;4.55;2.20;;;;;;;7.69;41.20;95542.28;4915451;28;20048;-62
2023/05/01 01:23:05;;;;;;;2.47;2.00;;;;;;;7.68;40.97;95545.06;4928684;28;20344;-62
2023/05/01 01:26:07;;;;;;;3.45;2.20;;;;;;;7.80;40.59;95535.84;4922596;28;20035;-62
2023/05/01 01:28:52;;;;;;;4.53;2.30;;;;;;;7.79;40.35;95532.38;4942159;28;20081;-63
2023/05/01 01:31:35;;;;;;;3.92;2.22;;;;;;;7.86;40.66;95526.44;4943508;28;20019;-62
2023/05/01 01:34:11;;;;;;;4.22;2.40;;;;;;;7.91;39.94;95526.75;4943049;28;20129;-62
2023/05/01 01:36:58;;;;;;;2.42;2.00;;;;;;;7.99;39.75;95533.91;4916939;28;20282;-62
2023/05/01 01:39:26;;;;;;;3.47;2.38;;;;;;;8.05;39.76;95522.63;4931525;28;20280;-62
2023/05/01 01:41:52;;;;;;;3.83;2.30;;;;;;;8.07;39.90;95527.78;4949726;28;20532;-62
2023/05/01 01:44:29;;;;;;;4.15;2.30;;;;;;;8.12;39.29;95517.50;4915085;28;20070;-62
2023/05/01 01:46:54;;;;;;;3.53;2.10;;;;;;;8.20;39.41;95519.34;4945338;28;20527;-62
2023/05/01 01:49:22;;;;;;;3.92;2.20;;;;;;;8.16;39.27;95521.50;4945867;28;20050;-62
2023/05/01 01:51:48;;;;;;;2.67;1.90;;;;;;;8.23;39.61;95509.22;4927630;28;20034;-62
2023/05/01 01:54:14;;;;;;;3.35;2.13;;;;;;;8.27;39.41;95507.88;4929217;28;20279;-62
2023/05/01 01:56:39;;;;;;;5.93;2.35;;;;;;;8.29;38.99;95511.22;4931647;28;20093;-62
2023/05/01 01:59:09;;;;;;;4.50;2.10;;;;;;;8.32;39.24;95507.41;4932085;28;20110;-62
2023/05/01 02:01:34;;;;;;;5.03;2.20;;;;;;;8.35;39.13;95506.22;4910973;28;20084;-62
2023/05/01 02:04:00;;;;;;;3.03;2.25;;;;;;;8.42;38.71;95499.25;4928962;28;20507;-62
2023/05/01 02:06:25;;;;;;;4.78;2.08;;;;;;;8.45;39.30;95498.94;4931577;28;20381;-62
2023/05/01 02:08:54;;;;;;;3.30;2.17;;;;;;;8.42;39.69;95492.16;4956883;28;20122;-62
2023/05/01 02:11:19;;;;;;;;;;;;;;;8.44;39.82;95490.13;4955901;28;20535;-62
2023/05/01 02:13:45;;;;;;;4.07;1.77;;;;;;;8.40;40.52;95488.81;4954837;28;19952;-62
2023/05/01 02:16:10;;;;;;;4.10;1.90;;;;;;;8.36;40.33;95489.34;4933855;28;20582;-62
2023/05/01 02:18:36;;;;;;;3.90;2.05;;;;;;;8.36;40.38;95486.69;4925833;28;20378;-62
2023/05/01 02:21:01;;;;;;;3.40;1.90;;;;;;;8.27;41.99;95481.34;4928583;28;20257;-62
2023/05/01 02:23:26;;;;;;;3.03;1.77;;;;;;;8.13;39.67;95484.69;4918828;28;20379;-62
2023/05/01 02:25:52;;;;;;;5.18;2.22;;;;;;;8.13;40.76;95474.09;4926380;28;20119;-62
2023/05/01 02:28:21;;;;;;;4.65;2.35;;;;;;;7.60;40.61;95477.81;4914151;28;20540;-62
2023/05/01 02:30:46;;;;;;;6.60;2.28;;;;;;;7.66;41.71;95471.03;4938032;28;20069;-62
2023/05/01 02:33:12;;;;;;;2.53;2.00;;;;;;;7.89;41.69;95473.91;4953944;28;20527;-62
2023/05/01 02:35:39;;;;;;;2.92;1.88;;;;;;;7.90;41.17;95472.09;4947326;28;20529;-62
2023/05/01 02:38:05;;;;;;;5.20;2.30;;;;;;;7.72;40.64;95472.22;4933765;28;20408;-62
2023/05/01 02:40:31;;;;;;;2.40;2.10;;;;;;;7.44;43.78;95467.19;4942157;28;20032;-62
2023/05/01 02:42:57;;;;;;;6.53;2.67;;;;;;;7.01;41.99;95471.50;4943572;28;20035;-63
2023/05/01 02:45:22;;;;;;;9.18;2.60;;;;;;;6.74;42.21;95467.25;4925284;28;20480;-62
2023/05/01 02:47:50;;;;;;;5.13;2.60;;;;;;;6.97;41.89;95467.50;4926343;28;20027;-63
2023/05/01 02:50:15;;;;;;;5.20;2.20;;;;;;;7.14;42.01;95456.97;4942252;28;20061;-62
2023/05/01 02:52:42;;;;;;;7.32;2.92;;;;;;;6.97;41.21;95462.22;4910811;28;20039;-62
2023/05/01 02:55:08;;;;;;;3.80;2.42;;;;;;;7.43;40.27;95461.06;4925305;28;20516;-62
2023/05/01 02:57:33;;;;;;;5.53;2.25;;;;;;;7.58;40.01;95455.13;4925295;28;20097;-62
2023/05/01 02:59:59;;;;;;;4.80;2.30;;;;;;;7.51;39.65;95453.13;4942905;28;20480;-62
2023/05/01 03:02:24;;;;;;;3.75;2.20;;;;;;;8.11;39.98;95455.69;4946509;28;20131;-62
2023/05/01 03:04:49;;;;;;;3.40;2.08;;;;;;;8.28;39.46;95455.69;4945558;28;20140;-62
2023/05/01 03:07:15;;;;;;;4.00;2.20;;;;;;;8.54;39.33;95458.13;4956163;28;20043;-62
2023/05/01 03:09:40;;;;;;;3.25;2.10;;;;;;;8.71;38.61;95458.09;4954363;28;20522;-62
2023/05/01 03:12:06;;;;;;;4.05;2.25;;;;;;;8.79;38.19;95454.56;4950112;28;20039;-62
2023/05/01 03:14:32;;;;;;;3.30;1.95;;;;;;;8.89;38.40;95454.38;4947324;28;20038;-62
2023/05/01 03:16:57;;;;;;;2.90;2.10;;;;;;;9.02;37.47;95454.72;4950497;28;20267;-62
2023/05/01 03:19:23;;;;;;;2.60;2.00;;;;;;;8.90;38.88;95454.22;4942947;28;20042;-62
2023/05/01 03:21:48;;;;;;;2.17;1.73;;;;;;;8.91;38.29;95452.41;4943296;28;20028;-62
2023/05/01 03:24:14;;;;;;;3.28;1.73;;;;;;;8.86;39.07;95447.59;4942797;28;20418;-63
2023/05/01 03:26:39;;;;;;;4.57;2.13;;;;;;;8.93;38.71;95445.06;4946564;28;20078;-62
2023/05/01 03:29:05;;;;;;;3.10;1.92;;;;;;;9.00;38.42;95435.44;4942798;28;20031;-62
2023/05/01 03:31:30;;;;;;;4.78;2.20;;;;;;;9.03;37.98;95437.78;4943809;28;20043;-62
2023/05/01 03:33:55;;;;;;;2.78;1.83;;;;;;;9.04;38.08;95436.75;4942699;28;20107;-62
2023/05/01 03:36:24;;;;;;;3.33;2.30;;;;;;;9.11;37.89;95438.75;4944033;28;20055;-62
2023/05/01 03:38:49;;;;;;;2.97;1.95;;;;;;;9.04;37.76;95431.44;4942756;28;20038;-63
2023/05/01 03:41:15;;;;;;;3.88;1.95;;;;;;;9.05;38.06;95432.28;4941418;28;20890;-63
2023/05/01 03:43:40;;;;;;;3.20;2.00;;;;;;;9.06;37.75;95428.63;4942926;28;20064;-63
2023/05/01 03:46:05;;;;;;;4.57;1.95;;;;;;;9.05;37.84;95433.09;4942413;28;20035;-63
2023/05/01 03:48:31;;;;;;;2.88;2.00;;;;;;;9.04;37.54;95428.78;4941781;28;20043;-63
2023/05/01 03:50:57;;;;;;;3.88;2.10;;;;;;;9.04;37.43;95428.78;4942981;28;20050;-63
2023/05/01 03:53:25;;;;;;;2.30;2.00;;;;;;;9.04;37.72;95430.59;4925349;28;20040;-63
2023/05/01 03:55:51;;;;;;;4.75;2.28;;;;;;;8.99;37.49;95425.84;4942693;28;20033;-63
2023/05/01 03:58:16;;;;;;;3.75;2.20;;;;;;;9.07;37.70;95415.19;4924876;28;20047;-63
2023/05/01 04:00:41;;;;;;;3.25;1.73;;;;;;;9.05;38.12;95419.00;4940911;28;20039;-63
2023/05/01 04:03:07;;;;;;;3.53;2.08;;;;;;;8.93;38.88;95419.34;4947915;28;20102;-63
2023/05/01 04:05:33;;;;;;;3.95;2.20;;;;;;;9.10;37.33;95415.81;4942070;28;20068;-63
2023/05/01 04:07:59;;;;;;;3.30;2.10;;;;;;;9.18;37.66;95421.91;4934898;28;20500;-63
2023/05/01 04:10:25;;;;;;;4.15;2.03;;;;;;;9.25;37.05;95416.72;4947433;28;20090;-63
2023/05/01 04:12:50;;;;;;;5.70;2.35;;;;;;;9.35;36.52;95421.00;4952031;28;20368;-63
2023/05/01 04:15:16;;;;;;;6.55;2.30;;;;;;;9.32;36.44;95433.63;4952844;28;20511;-63
2023/05/01 04:17:42;;;;;;;4.78;2.33;;;;;;;9.36;36.57;95423.50;4946212;28;20042;-63
2023/05/01 04:20:08;;;;;;;2.58;2.10;;;;;;;9.35;36.69;95419.16;4930954;28;20484;-63
2023/05/01 04:22:34;;;;;;;4.03;2.00;;;;;;;9.42;36.03;95419.31;4945816;28;20125;-63
2023/05/01 04:24:59;;;;;;;5.80;2.58;;;;;;;9.44;36.01;95411.97;4948017;28;20031;-63
2023/05/01 04:27:25;;;;;;;5.57;2.25;;;;;;;9.48;36.38;95415.94;4946013;28;20624;-63
2023/05/01 04:29:51;;;;;;;4.35;2.20;;;;;;;9.49;35.87;95422.94;4925921;28;20099;-64
2023/05/01 04:32:16;;;;;;;3.50;2.20;;;;;;;9.48;36.51;95421.25;4949908;28;20733;-64
2023/05/01 04:34:43;;;;;;;4.45;2.10;;;;;;;9.43;36.94;95405.84;4950949;28;20069;-63
2023/05/01 04:37:08;;;;;;;6.28;2.17;;;;;;;9.39;37.86;95409.03;4945286;28;20313;-63
2023/05/01 04:39:35;;;;;;;3.33;2.20;;;;;;;9.49;37.39;95409.63;4950834;28;20745;-63
2023/05/01 04:42:01;;;;;;;2.83;1.95;;;;;;;9.49;37.58;95400.84;4944866;28;20051;-63
2023/05/01 04:44:26;;;;;;;3.85;2.30;;;;;;;9.49;37.95;95406.97;4929711;28;20035;-64
2023/05/01 04:46:51;;;;;;;3.03;2.00;;;;;;;9.55;37.48;95406.25;4937528;28;20064;-63
2023/05/01 04:49:17;;;;;;;3.08;2.10;;;;;;;9.66;37.16;95407.66;4953013;28;20130;-63
2023/05/01 04:51:42;;;;;;;4.38;2.33;;;;;;;9.71;37.22;95404.50;4960405;28;20027;-63
2023/05/01 04:54:07;;;;;;;2.92;2.15;;;;;;;9.71;37.08;95405.31;4952866;28;20240;-63
2023/05/01 04:56:33;;;;;;;3.42;2.08;;;;;;;9.83;36.67;95396.94;4950220;28;20543;-63
2023/05/01 04:58:58;;;;;;;2.90;2.08;;;;;;;9.90;36.84;95397.03;4944432;28;20277;-64
2023/05/01 05:01:24;;;;;;;4.05;2.30;;;;;;;9.98;37.05;95394.31;4944566;28;20422;-63
2023/05/01 05:03:49;;;;;;;5.18;2.22;;;;;;;10.09;36.25;95401.88;4944207;28;20409;-63
2023/05/01 05:06:14;;;;;;;4.90;2.20;;;;;;;10.21;36.13;95404.91;4945666;28;20113;-63
2023/05/01 05:08:40;;;;;;;6.53;2.47;;;;;;;10.30;35.71;95392.38;4944155;28;20286;-64
2023/05/01 05:11:06;;;;;;;4.18;2.13;;;;;;;10.35;35.78;95398.00;4926559;28;20044;-63
2023/05/01 05:13:31;;;;;;;4.82;2.33;;;;;;;10.42;35.38;95391.94;4943870;28;20042;-63
2023/05/01 05:15:56;;;;;;;3.15;2.20;;;;;;;10.48;35.36;95393.88;4944532;28;20480;-63
2023/05/01 05:18:22;;;;;;;3.92;2.15;;;;;;;10.59;34.99;95390.75;4943292;28;20457;-63
2023/05/01 05:20:47;;;;;;;3.47;2.10;;;;;;;10.64;34.93;95392.03;4943915;28;20043;-63
2023/05/01 05:23:13;;;;;;;5.57;2.40;;;;;;;10.65;35.14;95396.34;4943717;28;20078;-63
2023/05/01 05:25:38;;;;;;;3.83;2.20;;;;;;;10.65;35.03;95394.53;4943880;28;20241;-63
2023/05/01 05:28:04;;;;;;;3.60;2.20;;;;;;;10.76;35.06;95395.88;4944089;28;20058;-63
2023/05/01 05:30:29;;;;;;;7.43;2.70;;;;;;;10.76;34.78;95390.56;4943596;28;20046;-63
2023/05/01 05:32:54;;;;;;;3.88;2.30;;;;;;;10.82;34.51;95389.84;4949483;28;20042;-63
2023/05/01 05:35:20;;;;;;;3.63;2.08;;;;;;;10.87;34.80;95390.09;4946184;28;20057;-63
2023/05/01 05:37:46;;;;;;;5.65;2.50;;;;;;;10.89;34.64;95389.91;4952150;28;20035;-63
2023/05/01 05:40:11;;;;;;;4.57;2.20;;;;;;;10.94;34.48;95386.66;4951380;28;20197;-63
2023/05/01 05:42:37;;;;;;;3.65;2.30;;;;;;;10.99;34.51;95381.63;4947823;28;21657;-63
2023/05/01 05:45:06;;;;;;;7.13;2.58;;;;;;;11.10;34.35;95385.66;4952071;28;20035;-63
2023/05/01 05:47:31;;;;;;;3.67;2.22;;;;;;;11.17;34.06;95385.75;4952408;28;20042;-64
2023/05/01 05:49:57;;;;;;;4.82;2.50;;;;;;;11.06;34.14;95387.88;4955893;28;20400;-64
2023/05/01 05:52:22;;;;;;;3.47;2.15;;;;;;;11.07;34.33;95386.84;4954446;28;20039;-63
2023/05/01 05:54:48;;;;;;;3.65;2.20;;;;;;;11.17;34.28;95377.75;4951661;28;20057;-63
2023/05/01 05:57:13;;;;;;;3.45;2.30;;;;;;;11.02;34.71;95386.59;4942397;28;20444;-64
2023/05/01 05:59:39;;;;;;;4.63;2.22;;;;;;;11.03;34.45;95387.41;4957240;28;20292;-63
2023/05/01 06:02:04;;;;;;;3.50;2.30;;;;;;;11.16;34.32;95378.75;4957641;28;20031;-63
2023/05/01 06:04:29;;;;;;;4.28;2.40;;;;;;;11.23;34.11;95387.66;4951102;28;20058;-63
2023/05/01 06:06:56;;;;;;;4.68;2.35;;;;;;;11.27;34.41;95386.28;4943425;28;20348;-63
2023/05/01 06:09:21;;;;;;;5.25;2.50;;;;;;;11.22;34.62;95388.69;4943968;28;20145;-63
2023/05/01 06:11:47;;;;;;;3.35;2.22;;;;;;;11.37;34.83;95386.81;4946063;28;20272;-63
2023/05/01 06:14:12;;;;;;;4.20;2.50;;;;;;;11.45;34.51;95382.34;4942048;28;20035;-63
2023/05/01 06:16:38;;;;;;;5.95;2.60;;;;;;;11.55;34.16;95384.69;4942985;28;20130;-63
2023/05/01 06:19:03;;;;;;;3.33;2.33;;;;;;;11.73;33.92;95382.41;4943180;28;20019;-64
2023/05/01 06:21:30;;;;;;;3.22;2.38;;;;;;;11.79;34.07;95380.84;4943084;28;20056;-63
2023/05/01 06:23:56;;;;;;;9.10;2.65;;;;;;;11.87;34.23;95380.69;4944207;28;20023;-64
2023/05/01 06:26:22;;;;;;;3.72;2.40;;;;;;;12.02;33.70;95374.47;4931115;28;20090;-63
2023/05/01 06:28:47;;;;;;;4.72;2.50;;;;;;;12.22;33.46;95381.81;4946409;28;20149;-63
2023/05/01 06:31:12;;;;;;;5.65;2.70;;;;;;;12.24;33.18;95382.47;4943625;28;20035;-63
2023/05/01 06:33:38;;;;;;;5.68;2.55;;;;;;;12.37;33.38;95376.38;4946160;28;20406;-63
2023/05/01 06:36:03;;;;;;;4.05;2.40;;;;;;;12.57;32.90;95381.84;4946149;28;20389;-64
2023/05/01 06:38:29;;;;;;;4.68;2.28;;;;;;;12.71;32.84;95385.41;4952041;28;20042;-64
2023/05/01 06:40:55;;;;;;;6.13;2.50;;;;;;;12.85;32.23;95380.97;4945984;28;20516;-63
2023/05/01 06:43:20;;;;;;;5.50;2.58;;;;;;;13.07;31.80;95378.22;4946684;28;20151;-64
2023/05/01 06:45:46;;;;;;;4.63;2.67;;;;;;;13.25;31.49;95377.66;4947523;28;20333;-64
2023/05/01 06:48:11;;;;;;;5.43;2.60;;;;;;;13.48;31.74;95383.69;4950836;28;20031;-64
2023/05/01 06:50:36;;;;;;;5.07;2.30;;;;;;;13.53;31.48;95382.03;4947238;28;20512;-63
2023/05/01 06:53:03;;;;;;;6.38;2.67;;;;;;;13.78;31.62;95372.63;4946969;28;20368;-64
2023/05/01 06:55:32;;;;;;;6.07;2.70;;;;;;;13.99;31.19;95368.13;4948107;28;20047;-64
2023/05/01 06:57:57;;;;;;;4.05;2.33;;;;;;;14.20;30.44;95364.41;4947724;28;20023;-64
2023/05/01 07:00:22;;;;;;;3.38;2.42;;;;;;;14.39;29.94;95368.13;4957400;28;20043;-64
2023/05/01 07:02:48;;;;;;;3.35;2.78;;;;;;;14.52;29.79;95371.78;4933746;29;20503;-64
2023/05/01 07:05:13;;;;;;;6.05;2.40;;;;;;;14.66;29.52;95376.09;4935001;29;20039;-64
2023/05/01 07:07:39;;;;;;;5.03;2.78;;;;;;;14.81;29.62;95375.03;4931481;29;20036;-64
2023/05/01 07:10:04;;;;;;;4.15;2.65;;;;;;;14.96;29.64;95369.44;4924197;29;20040;-64
2023/05/01 07:12:30;;;;;;;7.10;2.90;;;;;;;15.18;28.86;95364.59;4933227;29;20080;-64
2023/05/01 07:14:55;;;;;;;5.78;2.95;;;;;;;15.12;28.22;95364.63;4938103;29;20027;-64
2023/05/01 07:17:21;;;;;;;4.93;2.88;;;;;;;14.66;28.75;95369.91;4927454;29;20051;-64
2023/05/01 07:19:46;;;;;;;3.92;2.53;;;;;;;14.98;28.61;95367.34;4924126;29;20042;-64
2023/05/01 07:22:12;;;;;;;3.47;2.45;;;;;;;14.64;28.59;95364.75;4910060;29;20039;-64
2023/05/01 07:24:37;;;;;;;5.43;2.85;;;;;;;15.01;28.11;95368.78;4925026;29;20028;-64
2023/05/01 07:27:05;;;;;;;7.15;2.65;;;;;;;15.29;27.60;95356.88;4927386;29;20374;-64
2023/05/01 07:29:30;;;;;;;;;;;;;;;15.36;28.07;95361.19;4927192;29;20504;-64
2023/05/01 07:31:56;;;;;;;5.50;2.53;;;;;;;15.22;27.59;95365.81;4928971;29;19958;-64
2023/05/01 07:34:21;;;;;;;5.60;2.47;;;;;;;15.82;27.32;95365.69;4923013;29;20497;-64
2023/05/01 07:36:46;;;;;;;5.95;2.97;;;;;;;16.10;27.30;95364.44;4928144;29;20090;-64
2023/05/01 07:39:13;;;;;;;5.55;2.70;;;;;;;16.24;27.41;95360.59;4907923;29;20031;-63
2023/05/01 07:41:39;;;;;;;4.50;2.60;;;;;;;16.50;27.32;95369.47;4926380;29;20040;-64
2023/05/01 07:44:04;;;;;;;4.65;2.78;;;;;;;16.75;27.22;95365.06;4927075;29;20576;-64
2023/05/01 07:46:29;;;;;;;3.75;2.28;;;;;;;16.62;26.80;95366.03;4917909;29;20032;-64
2023/05/01 07:48:55;;;;;;;4.25;2.50;;;;;;;16.93;26.60;95363.44;4938577;29;20035;-64
2023/05/01 07:51:20;;;;;;;3.78;2.30;;;;;;;16.97;26.26;95357.41;4934914;29;20035;-64
2023/05/01 07:53:46;;;;;;;3.90;2.40;;;;;;;17.07;26.78;95361.41;4931430;29;20042;-64
2023/05/01 07:56:12;;;;;;;4.80;2.58;;;;;;;17.74;26.36;95357.81;4926171;29;20036;-65
2023/05/01 07:58:39;;;;;;;5.43;2.80;;;;;;;17.98;25.97;95354.41;4911591;29;20055;-65
2023/05/01 08:01:05;;;;;;;5.22;2.60;;;;;;;18.11;25.00;95348.78;4930755;29;20035;-65
2023/05/01 08:03:31;;;;;;;3.80;2.50;;;;;;;18.12;24.93;95355.00;4942873;28;20059;-64
2023/05/01 08:05:57;;;;;;;5.82;2.80;;;;;;;18.42;24.79;95352.19;4945963;28;20031;-65
2023/05/01 08:08:22;;;;;;;4.90;2.58;;;;;;;18.57;24.88;95356.28;4951265;28;20050;-65
2023/05/01 08:10:47;;;;;;;5.00;2.20;;;;;;;18.67;24.29;95347.66;4951378;28;20023;-65
2023/05/01 08:13:13;;;;;;;5.47;2.63;;;;;;;19.01;24.02;95358.59;4936037;28;20038;-65
2023/05/01 08:15:41;;;;;;;5.70;2.75;;;;;;;19.30;23.60;95347.84;4952533;28;20035;-65
2023/05/01 08:18:09;;;;;;;7.07;2.85;;;;;;;19.10;23.81;95350.94;4949849;28;20344;-64
2023/05/01 08:20:35;;;;;;;4.55;2.50;;;;;;;19.24;23.75;95351.47;4952507;28;20110;-65
2023/05/01 08:23:01;;;;;;;4.97;2.70;;;;;;;19.37;23.89;95352.31;4954403;28;20023;-64
2023/05/01 08:25:26;;;;;;;4.35;2.50;;;;;;;19.38;23.89;95354.72;4948646;28;20035;-64
2023/05/01 08:27:51;;;;;;;3.17;2.50;;;;;;;19.11;23.84;95357.16;4951030;28;20141;-64
2023/05/01 08:30:17;;;;;;;4.93;2.40;;;;;;;19.33;23.64;95360.88;4950034;28;20049;-64
2023/05/01 08:32:42;;;;;;;3.60;2.30;;;;;;;19.14;22.52;95351.28;4949412;28;20035;-64
2023/05/01 08:35:08;;;;;;;3.03;2.20;;;;;;;19.02;22.79;95348.63;4949338;28;20039;-65
2023/05/01 08:37:34;;;;;;;5.38;2.45;;;;;;;18.74;22.04;95355.59;4949979;28;20028;-64
2023/05/01 08:39:59;;;;;;;3.80;2.70;;;;;;;17.82;22.71;95361.25;4947244;28;20023;-64
2023/05/01 08:42:25;;;;;;;3.78;2.17;;;;;;;18.02;23.60;95350.19;4954817;28;20082;-65
2023/05/01 08:44:51;;;;;;;3.15;2.63;;;;;;;18.88;22.12;95351.59;4949232;28;20063;-64
2023/05/01 08:47:17;;;;;;;3.92;2.40;;;;;;;18.84;22.82;95355.00;4930614;28;20275;-64
2023/05/01 08:49:42;;;;;;;4.50;2.55;;;;;;;18.86;22.30;95351.00;4949570;28;20035;-65
2023/05/01 08:52:10;;;;;;;3.80;2.30;;;;;;;19.03;21.57;95353.78;4951155;28;20162;-65
2023/05/01 08:54:35;;;;;;;;;;;;;;;19.19;22.31;95351.38;4944257;28;20042;-65
2023/05/01 08:57:02;;;;;;;4.13;2.33;;;;;;;19.68;22.63;95347.47;4948248;28;19926;-65
2023/05/01 08:59:29;;;;;;;3.10;2.10;;;;;;;20.12;21.99;95351.44;4952653;28;20031;-65
2023/05/01 09:01:55;;;;;;;;;;;;;;;20.56;21.21;95353.44;4927180;28;20622;-65
2023/05/01 09:04:20;;;;;;;5.57;2.40;;;;;;;20.63;21.97;95348.69;4944222;28;20291;-65
2023/05/01 09:06:46;;;;;;;4.82;2.22;;;;;;;19.88;21.79;95341.56;4927135;28;20624;-64
2023/05/01 09:09:11;;;;;;;4.00;2.80;;;;;;;17.61;23.94;95349.97;4931615;28;20317;-64
2023/05/01 09:11:37;;;;;;;4.38;2.70;;;;;;;17.35;24.73;95346.59;4950567;28;20035;-65
2023/05/01 09:14:04;;;;;;;3.05;2.60;;;;;;;18.26;24.06;95332.16;4936307;28;20030;-64
2023/05/01 09:16:29;;;;;;;3.92;2.55;;;;;;;18.66;24.18;95332.53;4922948;28;20028;-65
2023/05/01 09:18:55;;;;;;;4.65;2.65;;;;;;;18.98;23.00;95334.78;4938048;28;20488;-65
2023/05/01 09:21:20;;;;;;;2.72;2.40;;;;;;;18.95;23.40;95329.88;4939952;28;20050;-65
2023/05/01 09:23:49;;;;;;;4.50;2.88;;;;;;;18.46;22.61;95335.56;4960334;28;20031;-65
2023/05/01 09:26:17;;;;;;;6.97;2.78;;;;;;;19.33;22.03;95336.59;4933705;28;20655;-64
2023/05/01 09:28:45;;;;;;;2.95;2.28;;;;;;;19.45;22.54;95330.31;4927812;28;20400;-64
2023/05/01 09:31:21;;;;;;;3.78;2.70;;;;;;;19.67;21.38;95325.03;4945609;28;20492;-65
2023/05/01 09:33:56;;;;;;;3.70;2.40;;;;;;;18.47;22.64;95332.63;4949499;28;20050;-65
2023/05/01 09:36:31;;;;;;;4.97;2.60;;;;;;;18.85;22.35;95329.66;4927360;28;20075;-65
2023/05/01 09:38:59;;;;;;;3.60;2.65;;;;;;;18.40;24.59;95329.25;4945225;28;20062;-65
2023/05/01 09:41:24;;;;;;;4.82;2.50;;;;;;;17.06;24.13;95335.56;4944570;28;20118;-65
2023/05/01 09:43:54;;;;;;;4.20;2.45;;;;;;;17.52;24.22;95326.06;4950504;28;20023;-65
2023/05/01 09:46:21;;;;;;;3.90;2.45;;;;;;;18.59;22.61;95323.75;4949399;28;20042;-65
2023/05/01 09:48:57;;;;;;;5.22;2.60;;;;;;;19.24;22.76;95321.78;4952775;28;20491;-65
2023/05/01 09:51:24;;;;;;;3.30;2.40;;;;;;;17.65;23.50;95333.09;4959150;28;20777;-65
2023/05/01 09:53:50;;;;;;;4.03;2.20;;;;;;;18.05;24.00;95323.59;4957341;28;20311;-65
2023/05/01 09:56:16;;;;;;;3.25;2.35;;;;;;;17.15;24.68;95321.63;4952752;28;20432;-65
2023/05/01 09:58:41;;;;;;;5.82;2.30;;;;;;;18.96;23.50;95323.41;4951831;28;20034;-65
2023/05/01 10:01:07;;;;;;;2.95;2.20;;;;;;;19.74;21.90;95324.88;4945768;28;20430;-65
2023/05/01 10:03:33;;;;;;;4.30;2.30;;;;;;;18.91;23.05;95317.94;4942111;28;20055;-65
2023/05/01 10:06:01;;;;;;;3.22;2.20;;;;;;;18.92;21.50;95330.34;4926618;28;20446;-65
2023/05/01 10:08:45;;;;;;;2.80;2.20;;;;;;;17.71;22.68;95325.97;4934587;28;20630;-65
2023/05/01 10:11:10;;;;;;;4.10;2.30;;;;;;;18.76;21.71;95311.16;4929616;28;20492;-65
2023/05/01 10:13:36;;;;;;;3.05;2.20;;;;;;;19.80;21.45;95313.09;4944484;28;20039;-65
2023/05/01 10:16:06;;;;;;;4.57;2.40;;;;;;;18.60;21.41;95318.13;4931047;28;20035;-65
2023/05/01 10:18:32;;;;;;;5.72;2.45;;;;;;;18.02;22.82;95317.88;4944586;28;20050;-65
2023/05/01 10:20:58;;;;;;;4.57;2.35;;;;;;;18.72;21.96;95311.88;4931281;28;20049;-65
2023/05/01 10:23:24;;;;;;;3.78;2.30;;;;;;;19.89;22.25;95315.38;4927887;28;20512;-65
2023/05/01 10:25:51;;;;;;;2.20;2.00;;;;;;;19.27;21.61;95312.41;4945818;28;20023;-65
2023/05/01 10:28:16;;;;;;;3.65;2.35;;;;;;;19.95;20.94;95307.13;4911452;28;20034;-65
2023/05/01 10:30:42;;;;;;;2.88;2.00;;;;;;;19.96;20.86;95313.38;4945570;28;20038;-64
2023/05/01 10:33:07;;;;;;;2.20;2.00;;;;;;;18.41;20.20;95317.41;4927226;28;20488;-64
2023/05/01 10:35:37;;;;;;;2.28;1.58;;;;;;;18.75;21.38;95314.91;4948850;28;20412;-64
2023/05/01 10:38:08;;;;;;;2.70;1.70;;;;;;;17.64;23.65;95309.94;4940046;28;20550;-64
2023/05/01 10:40:39;;;;;;;1.75;1.65;;;;;;;18.63;21.46;95306.03;4917020;28;20201;-64
2023/05/01 10:43:26;;;;;;;2.50;1.75;;;;;;;18.21;20.35;95313.19;4953443;28;20330;-64
2023/05/01 10:45:52;;;;;;;1.98;1.67;;;;;;;18.34;20.77;95305.91;4956366;28;20573;-64
2023/05/01 10:48:36;;;;;;;2.42;1.80;;;;;;;18.90;20.25;95305.50;4958069;28;20302;-64
2023/05/01 10:51:13;;;;;;;2.10;1.90;;;;;;;18.68;21.12;95301.56;4957030;28;20484;-64
2023/05/01 10:53:39;;;;;;;3.75;1.80;;;;;;;19.21;20.02;95288.03;4947101;28;20511;-64
2023/05/01 10:56:05;;;;;;;2.72;2.20;;;;;;;19.28;20.22;95295.19;4943693;28;20569;-63
2023/05/01 10:58:36;;;;;;;4.38;2.00;;;;;;;20.20;20.54;95294.28;4944288;28;20039;-64
2023/05/01 11:01:29;;;;;;;3.65;2.17;;;;;;;20.00;21.07;95292.91;4943302;28;20055;-65
2023/05/01 11:03:55;;;;;;;6.82;2.78;;;;;;;20.83;19.77;95291.34;4942119;28;20101;-64
2023/05/01 11:06:21;;;;;;;2.72;2.13;;;;;;;21.36;19.70;95290.88;4940959;28;20496;-64
2023/05/01 11:08:47;;;;;;;3.13;2.23;;;;;;;21.09;17.89;95282.69;4943608;28;20063;-63
2023/05/01 11:11:18;;;;;;;3.70;2.25;;;;;;;21.43;17.89;95287.97;4945834;28;20508;-64
2023/05/01 11:14:03;;;;;;;3.80;1.98;;;;;;;21.72;19.16;95284.16;4943742;28;20035;-63
2023/05/01 11:16:40;;;;;;;4.13;1.90;;;;;;;22.06;18.73;95281.16;4930596;28;20050;-63
2023/05/01 11:19:21;;;;;;;5.18;2.00;;;;;;;21.12;18.60;95290.31;4949805;28;20027;-64
2023/05/01 11:21:47;;;;;;;3.90;2.13;;;;;;;20.75;18.53;95286.38;4948348;28;20047;-63
2023/05/01 11:24:12;;;;;;;2.05;1.80;;;;;;;20.32;19.11;95286.88;4949744;28;20210;-64
2023/05/01 11:26:38;;;;;;;3.55;1.92;;;;;;;19.39;20.73;95286.22;4946043;28;20035;-63
2023/05/01 11:29:04;;;;;;;4.95;2.30;;;;;;;18.99;19.65;95295.97;4953605;28;20035;-64
2023/05/01 11:31:30;;;;;;;2.25;1.90;;;;;;;18.80;20.98;95285.34;4954016;28;20386;-63
2023/05/01 11:33:56;;;;;;;4.75;2.35;;;;;;;18.25;22.78;95292.81;4934124;28;20226;-63
2023/05/01 11:36:21;;;;;;;3.38;2.28;;;;;;;17.89;24.13;95282.06;4935793;28;20136;-64
2023/05/01 11:38:55;;;;;;;3.88;2.40;;;;;;;16.88;24.81;95296.91;4950243;28;20027;-63